Time;durP1;ratioP1;P1;durP2;ratioP2;P2;SDS_P1;SDS_P2;PMS_P1;PMS_P2;Temp;Humidity;BMP_temperature;BMP_pressure;BME280_temperature;BME280_humidity;BME280_pressure;Samples;Min_cycle;Max_cycle;Signal;HPM_P1;HPM_P2
2023/11/12 00:02:23;;;;;;;417.43;212.40;;;;;;;9.73;82.00;94277.69;4996348;28;20481;-77
2023/11/12 00:04:50;;;;;;;420.90;191.97;;;;;;;9.59;83.09;94286.81;5031206;28;20443;-77
2023/11/12 00:07:17;;;;;;;5.30;2.30;;;;;;;9.49;82.94;94293.00;5031161;28;20835;-77
2023/11/12 00:09:45;;;;;;;5.60;2.90;;;;;;;9.41;83.95;94285.84;5031014;28;20954;-77
2023/11/12 00:12:11;;;;;;;3.20;2.67;;;;;;;9.29;83.89;94300.06;5030826;28;20581;-77
2023/11/12 00:14:40;;;;;;;2.93;2.37;;;;;;;9.19;84.25;94297.41;5031080;28;20442;-78
2023/11/12 00:17:09;;;;;;;3.60;2.63;;;;;;;9.22;84.16;94296.31;5030790;28;20494;-77
2023/11/12 00:19:38;;;;;;;4.07;2.73;;;;;;;9.29;84.20;94297.44;4995833;28;20518;-77
2023/11/12 00:22:05;;;;;;;2.70;2.50;;;;;;;9.38;83.74;94308.88;5030961;28;20785;-77
2023/11/12 00:24:34;;;;;;;3.67;3.37;;;;;;;9.45;83.88;94299.50;4979378;28;20466;-77
2023/11/12 00:27:01;;;;;;;4.50;3.33;;;;;;;9.52;82.43;94301.41;5030659;28;20877;-77
2023/11/12 00:29:31;;;;;;;4.03;3.40;;;;;;;9.54;82.55;94298.66;5030383;28;20778;-77
2023/11/12 00:31:58;;;;;;;4.60;3.23;;;;;;;9.53;82.87;94297.00;5030568;28;20490;-77
2023/11/12 00:34:25;;;;;;;4.57;3.90;;;;;;;9.53;82.09;94287.34;5030703;28;20442;-77
2023/11/12 00:36:53;;;;;;;3.67;3.27;;;;;;;9.55;82.59;94287.25;5030334;28;20446;-77
2023/11/12 00:39:22;;;;;;;7.40;3.70;;;;;;;9.54;82.59;94289.03;5030290;28;20446;-77
2023/11/12 00:41:50;;;;;;;4.43;3.03;;;;;;;9.50;82.02;94284.19;5030845;28;20442;-78
2023/11/12 00:44:17;;;;;;;5.20;3.13;;;;;;;9.46;81.95;94286.25;5030609;28;20781;-77
2023/11/12 00:46:44;;;;;;;3.33;2.70;;;;;;;9.48;82.14;94291.34;5030103;28;20438;-77
2023/11/12 00:49:11;;;;;;;3.63;2.70;;;;;;;9.45;81.35;94291.63;5030462;28;20948;-77
2023/11/12 00:51:38;;;;;;;5.17;3.20;;;;;;;9.34;81.81;94284.75;5029930;28;20680;-77
2023/11/12 00:54:06;;;;;;;3.60;3.30;;;;;;;9.35;81.54;94285.56;5030167;28;20450;-77
2023/11/12 00:56:33;;;;;;;2.93;2.63;;;;;;;9.26;81.08;94277.59;5030247;28;20450;-77
2023/11/12 00:59:00;;;;;;;6.33;3.93;;;;;;;9.19;81.74;94279.09;5030445;28;20516;-77
2023/11/12 01:01:26;;;;;;;10.80;5.07;;;;;;;9.07;82.33;94274.94;5029155;28;20447;-77
2023/11/12 01:03:53;;;;;;;3.30;2.97;;;;;;;9.00;82.61;94279.06;5030200;28;20461;-77
2023/11/12 01:06:20;;;;;;;4.33;3.07;;;;;;;9.00;82.58;94277.28;5032123;28;20447;-77
2023/11/12 01:08:50;;;;;;;5.93;2.73;;;;;;;8.94;82.11;94279.59;5036925;28;21001;-77
2023/11/12 01:11:20;;;;;;;2.53;2.33;;;;;;;8.94;81.77;94277.81;5034252;28;20791;-77
2023/11/12 01:13:47;;;;;;;3.53;3.00;;;;;;;8.96;81.97;94277.66;5030201;28;20489;-77
2023/11/12 01:16:15;;;;;;;8.83;3.77;;;;;;;8.91;81.97;94279.88;5029982;28;20439;-77
2023/11/12 01:18:42;;;;;;;5.87;4.03;;;;;;;8.86;81.98;94292.53;5029865;28;21005;-77
2023/11/12 01:21:09;;;;;;;5.20;3.50;;;;;;;8.78;82.47;94295.00;5030394;28;20449;-77
2023/11/12 01:23:36;;;;;;;6.60;4.03;;;;;;;8.78;81.93;94282.75;5029739;28;20453;-77
2023/11/12 01:26:04;;;;;;;4.10;3.70;;;;;;;8.78;81.93;94290.59;5029971;28;20455;-77
2023/11/12 01:28:34;;;;;;;3.80;3.47;;;;;;;8.78;81.67;94295.00;5029893;28;20528;-77
2023/11/12 01:31:01;;;;;;;7.33;2.70;;;;;;;8.60;82.29;94279.94;5029645;28;20874;-77
2023/11/12 01:33:29;;;;;;;4.90;3.87;;;;;;;8.52;82.70;94286.81;5029920;28;20853;-77
2023/11/12 01:35:56;;;;;;;9.50;4.93;;;;;;;8.44;83.42;94289.25;5029771;28;20446;-77
2023/11/12 01:38:23;;;;;;;25.93;22.07;;;;;;;8.40;84.23;94280.84;5030032;28;20463;-77
2023/11/12 01:40:50;;;;;;;18.47;16.17;;;;;;;8.37;84.78;94281.91;5029927;28;20443;-77
2023/11/12 01:43:18;;;;;;;31.90;28.93;;;;;;;8.27;84.69;94281.03;5029437;28;20449;-77
2023/11/12 01:45:46;;;;;;;141.03;95.80;;;;;;;8.24;84.71;94278.69;5097593;28;20444;-77
2023/11/12 01:48:15;;;;;;;97.20;80.37;;;;;;;8.16;85.24;94277.69;5029444;28;20451;-77
2023/11/12 01:50:43;;;;;;;386.13;119.70;;;;;;;8.11;85.82;94278.09;5029398;28;20456;-78
2023/11/12 01:53:11;;;;;;;434.50;133.27;;;;;;;8.11;86.18;94274.63;5029710;28;20974;-78
2023/11/12 01:55:40;;;;;;;477.90;148.13;;;;;;;8.12;85.94;94277.13;5029441;28;20483;-78
2023/11/12 01:58:09;;;;;;;432.80;140.00;;;;;;;8.13;85.35;94275.34;5029508;28;20511;-78
2023/11/12 02:00:39;;;;;;;405.10;129.30;;;;;;;8.10;84.91;94292.09;5029306;28;20505;-78
2023/11/12 02:03:10;;;;;;;476.73;152.70;;;;;;;8.07;84.78;94287.94;5029612;28;20465;-78
2023/11/12 02:05:37;;;;;;;390.87;123.73;;;;;;;8.00;84.81;94289.41;5029288;28;20471;-76
2023/11/12 02:08:06;;;;;;;496.50;146.90;;;;;;;7.98;84.50;94293.13;5029578;28;20489;-75
2023/11/12 02:10:36;;;;;;;374.77;138.97;;;;;;;8.03;84.05;94290.94;5029400;28;20453;-76
2023/11/12 02:13:04;;;;;;;416.53;137.87;;;;;;;8.06;83.71;94294.13;5030398;28;20827;-75
2023/11/12 02:15:32;;;;;;;370.33;126.10;;;;;;;8.06;83.25;94286.28;5032811;28;20484;-75
2023/11/12 02:17:59;;;;;;;466.53;149.00;;;;;;;7.97;83.97;94278.41;5032803;28;20445;-75
2023/11/12 02:20:27;;;;;;;516.63;158.77;;;;;;;7.89;84.05;94281.66;5083338;28;20974;-76
2023/11/12 02:22:57;;;;;;;476.77;148.60;;;;;;;7.90;83.83;94287.72;5032835;28;20441;-76
2023/11/12 02:25:25;;;;;;;465.83;149.47;;;;;;;7.91;83.50;94284.97;5032756;28;20448;-76
2023/11/12 02:27:54;;;;;;;505.73;148.57;;;;;;;7.87;83.54;94283.59;5032569;28;20438;-76
2023/11/12 02:30:20;;;;;;;424.13;131.73;;;;;;;7.88;84.13;94293.06;5032673;28;20476;-76
2023/11/12 02:32:48;;;;;;;456.93;140.67;;;;;;;7.88;85.09;94290.47;5032112;28;20498;-75
2023/11/12 02:35:16;;;;;;;498.03;155.37;;;;;;;7.87;85.20;94287.97;5032617;28;20490;-76
2023/11/12 02:37:44;;;;;;;503.70;143.27;;;;;;;7.90;85.76;94280.72;5032248;28;20455;-75
2023/11/12 02:40:14;;;;;;;505.90;146.80;;;;;;;7.91;84.71;94284.97;5032288;28;20453;-76
2023/11/12 02:42:43;;;;;;;521.73;157.73;;;;;;;7.92;84.69;94285.81;5032234;28;20536;-76
2023/11/12 02:45:10;;;;;;;526.57;145.73;;;;;;;7.95;85.50;94285.53;5032070;28;20454;-76
2023/11/12 02:47:37;;;;;;;504.33;142.90;;;;;;;7.92;85.13;94285.81;5032187;28;20452;-76
2023/11/12 02:50:25;;;;;;;472.87;144.40;;;;;;;7.85;85.67;94282.06;5032150;28;20939;-76
2023/11/12 02:52:57;;;;;;;521.30;140.83;;;;;;;7.82;85.77;94283.16;5032050;28;20547;-76
2023/11/12 02:55:24;;;;;;;488.77;145.47;;;;;;;7.85;86.09;94280.28;5032448;28;20479;-76
2023/11/12 02:57:53;;;;;;;3.90;3.50;;;;;;;7.89;86.36;94279.06;5032156;28;20461;-76
2023/11/12 03:00:20;;;;;;;3.60;3.13;;;;;;;7.89;86.55;94283.47;5032427;28;20441;-76
2023/11/12 03:02:47;;;;;;;3.20;2.90;;;;;;;7.90;86.47;94277.28;5031841;28;20449;-76
2023/11/12 03:05:14;;;;;;;5.27;2.97;;;;;;;7.92;85.86;94285.81;5031978;28;20451;-76
2023/11/12 03:07:41;;;;;;;3.57;3.27;;;;;;;7.92;86.34;94284.03;5031595;28;20962;-76
2023/11/12 03:10:13;;;;;;;10.70;3.63;;;;;;;7.96;86.25;94287.19;5032165;28;20517;-76
2023/11/12 03:12:40;;;;;;;5.40;3.40;;;;;;;7.88;86.84;94289.63;5031708;28;20499;-76
2023/11/12 03:15:12;;;;;;;3.13;2.83;;;;;;;7.82;86.62;94296.22;5099290;28;20980;-76
2023/11/12 03:17:43;;;;;;;3.40;2.63;;;;;;;7.83;86.91;94290.03;5012906;28;20446;-76
2023/11/12 03:20:13;;;;;;;4.07;3.10;;;;;;;7.86;87.13;94300.22;5031597;28;20477;-76
2023/11/12 03:22:40;;;;;;;3.20;2.80;;;;;;;7.80;87.13;94295.47;5080525;28;20456;-76
2023/11/12 03:25:09;;;;;;;6.33;2.97;;;;;;;7.75;86.95;94315.94;5098691;28;20440;-76
2023/11/12 03:27:36;;;;;;;6.47;2.20;;;;;;;7.77;86.99;94321.84;5031982;28;20529;-76
2023/11/12 03:30:04;;;;;;;2.63;2.43;;;;;;;7.76;87.40;94301.91;5031275;28;20490;-76
2023/11/12 03:32:32;;;;;;;3.30;3.00;;;;;;;7.82;87.12;94317.09;5031428;28;20526;-76
2023/11/12 03:35:00;;;;;;;6.70;2.77;;;;;;;7.88;86.75;94336.66;5031613;28;20452;-76
2023/11/12 03:37:27;;;;;;;4.07;2.80;;;;;;;7.78;86.86;94345.22;5031703;28;20768;-76
2023/11/12 03:39:54;;;;;;;3.87;2.40;;;;;;;7.67;86.80;94318.34;5099261;28;20440;-76
2023/11/12 03:42:21;;;;;;;2.90;2.70;;;;;;;7.58;86.78;94326.97;5031685;28;20475;-76
2023/11/12 03:44:49;;;;;;;8.53;3.00;;;;;;;7.57;87.09;94333.97;5031359;28;20444;-76
2023/11/12 03:47:16;;;;;;;3.20;2.90;;;;;;;7.54;87.28;94336.81;5031517;28;20452;-76
2023/11/12 03:49:49;;;;;;;2.50;2.30;;;;;;;7.51;87.74;94324.00;5031074;28;20440;-76
2023/11/12 03:52:15;;;;;;;2.70;2.50;;;;;;;7.50;87.24;94324.94;5031190;28;20452;-76
2023/11/12 03:54:44;;;;;;;2.57;2.37;;;;;;;7.59;87.81;94321.59;5031313;28;20487;-76
2023/11/12 03:57:10;;;;;;;3.40;3.20;;;;;;;7.64;87.21;94334.28;5031228;28;20445;-76
2023/11/12 03:59:37;;;;;;;4.47;2.90;;;;;;;7.64;87.06;94329.06;5030932;28;20922;-76
2023/11/12 04:02:05;;;;;;;2.87;2.67;;;;;;;7.62;87.37;94325.75;5030844;28;20464;-76
2023/11/12 04:04:32;;;;;;;3.43;3.13;;;;;;;7.65;86.45;94325.50;5031253;28;20527;-76
2023/11/12 04:07:00;;;;;;;7.30;3.37;;;;;;;7.67;85.96;94332.25;5030863;28;20444;-76
2023/11/12 04:09:27;;;;;;;11.87;2.90;;;;;;;7.61;85.38;94311.03;5030760;28;20899;-76
2023/11/12 04:11:54;;;;;;;3.43;2.53;;;;;;;7.29;85.54;94319.72;5030927;28;20814;-76
2023/11/12 04:14:21;;;;;;;3.50;2.73;;;;;;;7.19;86.94;94333.63;5098423;28;20487;-76
2023/11/12 04:16:49;;;;;;;5.17;4.30;;;;;;;7.19;86.46;94328.41;5030999;28;20455;-76
2023/11/12 04:19:16;;;;;;;4.77;2.60;;;;;;;7.04;87.32;94317.44;5030717;28;20841;-76
2023/11/12 04:21:47;;;;;;;4.17;2.80;;;;;;;7.00;87.62;94329.06;5030308;28;20464;-76
2023/11/12 04:24:15;;;;;;;3.53;3.20;;;;;;;7.03;88.27;94336.63;5030698;28;20478;-76
2023/11/12 04:26:42;;;;;;;5.10;3.30;;;;;;;7.07;87.92;94333.66;5029404;28;20494;-76
2023/11/12 04:29:09;;;;;;;5.63;2.63;;;;;;;7.13;88.59;94332.34;5030588;28;20499;-76
2023/11/12 04:31:36;;;;;;;3.47;3.17;;;;;;;7.22;88.08;94339.41;5030551;28;20919;-76
2023/11/12 04:34:07;;;;;;;4.93;2.77;;;;;;;7.28;88.33;94340.72;5030316;28;20488;-76
2023/11/12 04:36:36;;;;;;;3.70;2.60;;;;;;;7.32;87.99;94349.97;5030453;28;20448;-76
2023/11/12 04:39:03;;;;;;;4.70;3.20;;;;;;;7.29;87.92;94358.88;5030301;28;20525;-76
2023/11/12 04:41:31;;;;;;;6.30;3.83;;;;;;;7.35;87.61;94354.94;5030266;28;20453;-76
2023/11/12 04:43:59;;;;;;;9.90;2.90;;;;;;;7.44;86.96;94354.16;5030487;28;20973;-76
2023/11/12 04:46:26;;;;;;;3.97;2.90;;;;;;;7.41;86.41;94352.66;5030586;28;20527;-76
2023/11/12 04:48:52;;;;;;;3.70;2.80;;;;;;;7.43;87.27;94342.91;5011830;28;20458;-76
2023/11/12 04:51:19;;;;;;;4.77;2.53;;;;;;;7.44;86.77;94338.50;5030544;28;20497;-76
2023/11/12 04:53:46;;;;;;;6.07;2.80;;;;;;;7.40;87.00;94353.59;5029882;28;21004;-76
2023/11/12 04:56:13;;;;;;;6.90;3.20;;;;;;;7.34;87.52;94359.31;5080129;28;20475;-76
2023/11/12 04:58:42;;;;;;;3.00;2.80;;;;;;;7.35;87.66;94344.50;5030244;28;20455;-76
2023/11/12 05:01:08;;;;;;;3.27;2.97;;;;;;;7.30;87.61;94347.47;5030321;28;20450;-76
2023/11/12 05:03:35;;;;;;;4.80;2.83;;;;;;;7.18;88.50;94345.84;5030420;28;20459;-76
2023/11/12 05:06:03;;;;;;;2.93;2.73;;;;;;;7.22;89.03;94349.84;5030274;28;20442;-76
2023/11/12 05:08:30;;;;;;;5.77;2.70;;;;;;;7.28;89.07;94361.59;5029868;28;20517;-76
2023/11/12 05:10:57;;;;;;;3.23;2.90;;;;;;;7.29;89.51;94366.69;5030080;28;20459;-76
2023/11/12 05:13:24;;;;;;;6.27;2.80;;;;;;;7.38;88.96;94365.13;5030028;28;20487;-76
2023/11/12 05:15:52;;;;;;;6.40;2.70;;;;;;;7.17;89.20;94361.59;5030277;28;20451;-76
2023/11/12 05:18:19;;;;;;;3.90;3.30;;;;;;;7.06;90.09;94354.66;5029768;28;20443;-75
2023/11/12 05:20:46;;;;;;;4.13;3.03;;;;;;;6.95;90.39;94352.91;5097279;28;20463;-75
2023/11/12 05:23:14;;;;;;;3.80;2.70;;;;;;;7.02;90.36;94384.53;5029620;28;20451;-75
2023/11/12 05:25:41;;;;;;;8.50;3.33;;;;;;;7.05;91.06;94389.50;5029729;28;20448;-75
2023/11/12 05:28:07;;;;;;;10.43;3.03;;;;;;;7.10;90.94;94382.97;5011394;28;20461;-75
2023/11/12 05:30:34;;;;;;;3.10;2.90;;;;;;;7.09;90.58;94383.94;4995356;28;20857;-75
2023/11/12 05:33:03;;;;;;;5.47;3.77;;;;;;;7.15;90.58;94406.09;5029720;28;20472;-76
2023/11/12 05:35:29;;;;;;;4.33;3.90;;;;;;;7.15;90.81;94404.31;5029646;28;20476;-76
2023/11/12 05:37:56;;;;;;;12.20;4.87;;;;;;;7.24;90.71;94402.78;5029843;28;20455;-76
2023/11/12 05:40:23;;;;;;;13.40;5.20;;;;;;;7.37;90.53;94406.03;5029916;28;20457;-76
2023/11/12 05:42:50;;;;;;;8.07;5.60;;;;;;;7.39;90.17;94414.59;5029907;28;20444;-76
2023/11/12 05:45:17;;;;;;;13.10;6.00;;;;;;;7.50;89.75;94421.53;5029568;28;20452;-77
2023/11/12 05:47:44;;;;;;;7.40;6.30;;;;;;;7.12;89.90;94407.16;5030044;28;20493;-76
2023/11/12 05:50:12;;;;;;;5.40;4.70;;;;;;;7.16;90.68;94420.78;5032789;28;20826;-77
2023/11/12 05:52:39;;;;;;;17.80;7.70;;;;;;;7.25;91.19;94447.97;4997942;28;20436;-76
2023/11/12 05:55:07;;;;;;;18.20;8.30;;;;;;;7.33;90.88;94433.34;5032711;28;20507;-76
2023/11/12 05:57:33;;;;;;;19.57;8.10;;;;;;;7.35;90.18;94441.06;5032747;28;20798;-76
2023/11/12 06:00:00;;;;;;;12.43;5.87;;;;;;;7.42;90.61;94455.25;5032925;28;20439;-76
2023/11/12 06:02:27;;;;;;;8.40;5.30;;;;;;;7.42;90.08;94448.25;5135514;27;20438;-77
2023/11/12 06:04:54;;;;;;;7.50;5.50;;;;;;;7.41;90.22;94458.84;5137401;27;20446;-76
2023/11/12 06:07:22;;;;;;;10.97;6.50;;;;;;;7.47;90.54;94469.59;5039386;27;20452;-78
2023/11/12 06:09:49;;;;;;;12.53;6.43;;;;;;;7.44;90.64;94454.19;5033353;28;20449;-77
2023/11/12 06:12:15;;;;;;;6.90;4.87;;;;;;;7.17;91.90;94466.81;5126937;27;20993;-76
2023/11/12 06:14:42;;;;;;;6.83;5.47;;;;;;;7.26;91.97;94489.59;5136864;27;20484;-76
2023/11/12 06:17:09;;;;;;;7.43;5.60;;;;;;;7.28;91.72;94479.03;5136788;27;20475;-75
2023/11/12 06:19:36;;;;;;;10.80;6.53;;;;;;;6.91;93.39;94468.81;5135966;27;20425;-74
2023/11/12 06:22:03;;;;;;;6.37;5.70;;;;;;;7.15;92.84;94495.63;5136743;27;20590;-74
2023/11/12 06:24:31;;;;;;;38.93;19.57;;;;;;;7.29;92.97;94496.34;5100206;27;20940;-74
2023/11/12 06:26:58;;;;;;;23.20;12.07;;;;;;;7.32;92.20;94483.06;5136721;27;20442;-76
2023/11/12 06:29:25;;;;;;;22.93;10.20;;;;;;;7.39;91.70;94498.09;5136759;27;20506;-77
2023/11/12 06:31:52;;;;;;;10.07;5.77;;;;;;;7.46;91.96;94488.00;5136638;27;20441;-74
2023/11/12 06:34:19;;;;;;;110.87;69.53;;;;;;;9.11;100.00;94482.25;5100271;27;21000;-77
2023/11/12 06:36:46;;;;;;;31.80;18.90;;;;;;;10.41;100.00;94497.88;5136433;27;20478;-76
2023/11/12 06:39:13;;;;;;;20.97;13.60;;;;;;;10.76;100.00;94494.66;5137169;27;20445;-74
2023/11/12 06:41:42;;;;;;;9.73;7.37;;;;;;;11.00;90.01;94500.28;5137130;27;20452;-74
2023/11/12 06:44:09;;;;;;;8.63;5.17;;;;;;;10.73;85.72;94516.78;5041398;28;20454;-77
2023/11/12 06:46:36;;;;;;;12.00;6.13;;;;;;;10.49;83.87;94506.72;5046241;28;20913;-76
2023/11/12 06:49:03;;;;;;;7.57;6.43;;;;;;;9.99;82.32;94507.75;5031942;28;20443;-76
2023/11/12 06:51:30;;;;;;;9.20;6.43;;;;;;;9.87;82.44;94512.28;5032032;28;20841;-75
2023/11/12 06:53:57;;;;;;;7.07;6.40;;;;;;;9.60;82.63;94528.63;5099664;28;20525;-75
2023/11/12 06:56:24;;;;;;;18.70;10.60;;;;;;;9.53;83.75;94519.63;5031510;28;20450;-75
2023/11/12 06:58:53;;;;;;;17.90;9.97;;;;;;;9.25;85.11;94529.03;5081621;28;20445;-76
2023/11/12 07:01:19;;;;;;;12.97;9.10;;;;;;;9.20;85.66;94539.06;5031056;28;20940;-74
2023/11/12 07:03:47;;;;;;;18.47;9.97;;;;;;;9.24;86.80;94533.44;5031395;28;20794;-74
2023/11/12 07:06:13;;;;;;;15.83;8.60;;;;;;;9.11;87.42;94522.34;5031391;28;20450;-74
2023/11/12 07:08:41;;;;;;;23.53;8.17;;;;;;;9.19;87.38;94538.22;5031220;28;20503;-74
2023/11/12 07:11:09;;;;;;;7.10;5.93;;;;;;;9.15;87.72;94536.84;4996796;28;20482;-73
2023/11/12 07:13:36;;;;;;;9.43;5.80;;;;;;;9.19;87.96;94527.75;5012584;28;20446;-74
2023/11/12 07:16:05;;;;;;;7.20;5.90;;;;;;;9.30;87.62;94545.19;5031460;27;20470;-74
2023/11/12 07:18:32;;;;;;;8.30;6.23;;;;;;;9.35;87.57;94545.63;5011767;28;20462;-74
2023/11/12 07:20:59;;;;;;;7.27;5.60;;;;;;;9.39;88.03;94551.41;5031172;28;20453;-74
2023/11/12 07:23:26;;;;;;;9.33;5.80;;;;;;;9.46;87.96;94555.16;5031080;28;20852;-74
2023/11/12 07:25:53;;;;;;;7.40;5.87;;;;;;;9.54;87.90;94547.47;5030740;28;20439;-74
2023/11/12 07:28:20;;;;;;;21.30;12.10;;;;;;;9.48;87.54;94545.38;5031612;28;20438;-73
2023/11/12 07:30:47;;;;;;;12.67;6.77;;;;;;;9.39;88.45;94559.28;5031280;28;20453;-74
2023/11/12 07:33:15;;;;;;;15.00;8.93;;;;;;;9.46;88.33;94558.63;5030382;28;20447;-73
2023/11/12 07:35:41;;;;;;;18.67;11.70;;;;;;;9.46;88.58;94552.53;5030670;28;20548;-73
2023/11/12 07:38:08;;;;;;;36.00;12.27;;;;;;;10.92;100.00;94533.44;5031299;28;20446;-78
2023/11/12 07:40:35;;;;;;;28.87;18.00;;;;;;;11.76;100.00;94556.13;5030465;28;20491;-75
2023/11/12 07:43:03;;;;;;;20.73;10.37;;;;;;;12.01;90.27;94559.91;5030868;28;20511;-75
2023/11/12 07:45:29;;;;;;;14.47;8.03;;;;;;;13.45;79.55;94549.19;5030740;28;20495;-75
2023/11/12 07:47:56;;;;;;;15.40;8.77;;;;;;;12.94;76.07;94563.94;5030593;28;20451;-75
2023/11/12 07:50:25;;;;;;;11.13;7.83;;;;;;;12.62;75.41;94558.41;5030657;28;20436;-75
2023/11/12 07:52:54;;;;;;;7.03;6.33;;;;;;;12.34;76.25;94562.91;5029399;28;20444;-75
2023/11/12 07:55:21;;;;;;;14.00;6.70;;;;;;;12.13;77.25;94552.63;5012191;28;20494;-75
2023/11/12 07:57:48;;;;;;;11.83;6.03;;;;;;;11.96;77.66;94549.00;5030516;28;20474;-73
2023/11/12 08:00:20;;;;;;;8.40;5.40;;;;;;;11.85;79.07;94553.63;5030738;28;20861;-75
2023/11/12 08:02:48;;;;;;;6.80;5.90;;;;;;;11.76;79.98;94556.13;5030561;28;20981;-75
2023/11/12 08:05:18;;;;;;;15.80;11.00;;;;;;;11.66;79.51;94555.34;5052400;28;20432;-76
2023/11/12 08:07:46;;;;;;;34.00;18.97;;;;;;;11.54;78.92;94551.22;5030254;28;20439;-75
2023/11/12 08:10:15;;;;;;;30.93;16.20;;;;;;;11.38;79.76;94549.22;5029834;28;20451;-75
2023/11/12 08:12:43;;;;;;;13.27;9.23;;;;;;;11.08;80.78;94542.41;5030079;28;20451;-75
2023/11/12 08:15:13;;;;;;;11.00;7.70;;;;;;;10.80;82.41;94545.91;5030310;28;20492;-76
2023/11/12 08:17:43;;;;;;;7.53;5.27;;;;;;;10.65;84.05;94542.03;5029173;28;20462;-76
2023/11/12 08:20:18;;;;;;;5.63;5.13;;;;;;;10.52;86.71;94540.53;5030177;28;20511;-75
2023/11/12 08:22:53;;;;;;;6.63;4.03;;;;;;;10.48;84.48;94540.94;5034805;28;20469;-76
2023/11/12 08:25:20;;;;;;;6.20;4.03;;;;;;;10.46;84.14;94535.84;5031730;28;20446;-76
2023/11/12 08:27:49;;;;;;;3.90;3.60;;;;;;;10.49;82.90;94538.19;5030034;28;20441;-76
2023/11/12 08:30:18;;;;;;;6.23;4.40;;;;;;;10.57;84.08;94534.88;5079742;28;20446;-76
2023/11/12 08:32:45;;;;;;;9.17;3.80;;;;;;;10.54;83.22;94543.84;5029160;28;20474;-76
2023/11/12 08:35:12;;;;;;;7.47;4.20;;;;;;;10.52;82.13;94543.16;5029653;28;20486;-76
2023/11/12 08:37:40;;;;;;;13.93;10.27;;;;;;;10.40;83.91;94556.53;5029523;28;20443;-76
2023/11/12 08:40:11;;;;;;;20.80;10.07;;;;;;;10.15;85.37;94561.31;5029634;28;20514;-76
2023/11/12 08:42:41;;;;;;;23.80;11.97;;;;;;;10.13;86.06;94551.94;5029267;28;20456;-76
2023/11/12 08:45:08;;;;;;;21.13;13.07;;;;;;;10.14;86.52;94558.84;5028918;28;20454;-76
2023/11/12 08:47:35;;;;;;;18.23;12.03;;;;;;;10.13;86.87;94562.41;5029038;28;20454;-76
2023/11/12 08:50:02;;;;;;;25.17;13.00;;;;;;;10.05;88.23;94560.44;5028864;28;20552;-76
2023/11/12 08:52:28;;;;;;;28.00;15.40;;;;;;;9.97;88.97;94570.78;5010377;28;20446;-76
2023/11/12 08:54:55;;;;;;;26.57;16.60;;;;;;;9.89;89.24;94563.59;4993850;28;20500;-76
2023/11/12 08:57:23;;;;;;;24.33;13.77;;;;;;;9.56;91.12;94559.50;5028825;28;20446;-76
2023/11/12 08:59:52;;;;;;;30.37;14.90;;;;;;;9.50;91.15;94554.75;5029113;28;20452;-76
2023/11/12 09:02:21;;;;;;;21.43;13.50;;;;;;;9.29;92.51;94552.22;5028904;28;20471;-76
2023/11/12 09:04:48;;;;;;;40.47;14.60;;;;;;;9.20;93.41;94558.22;5028729;28;20939;-76
2023/11/12 09:07:15;;;;;;;23.80;14.30;;;;;;;8.90;94.29;94566.03;5028908;28;20449;-76
2023/11/12 09:09:43;;;;;;;32.23;15.50;;;;;;;9.01;93.87;94563.38;5028796;28;20999;-76
2023/11/12 09:12:09;;;;;;;30.07;21.57;;;;;;;9.06;94.19;94562.97;5028668;28;20479;-76
2023/11/12 09:14:37;;;;;;;15.73;12.40;;;;;;;8.99;94.80;94571.34;5028494;28;20493;-76
2023/11/12 09:17:04;;;;;;;19.10;12.07;;;;;;;9.18;95.04;94572.38;5028643;28;20532;-76
2023/11/12 09:19:33;;;;;;;20.73;11.77;;;;;;;9.29;95.39;94577.56;5028679;28;20442;-76
2023/11/12 09:22:00;;;;;;;15.63;10.83;;;;;;;9.43;94.35;94566.72;5027943;28;20439;-76
2023/11/12 09:24:27;;;;;;;22.97;15.10;;;;;;;9.44;94.06;94573.63;5028278;28;20474;-76
2023/11/12 09:26:54;;;;;;;24.43;16.37;;;;;;;9.43;92.98;94560.66;5096085;28;20423;-76
2023/11/12 09:29:21;;;;;;;30.57;20.20;;;;;;;9.32;93.48;94557.19;5028601;28;20442;-76
2023/11/12 09:31:49;;;;;;;23.33;17.70;;;;;;;8.88;95.21;94557.47;5010094;28;20847;-76
2023/11/12 09:34:16;;;;;;;19.87;11.30;;;;;;;8.74;97.91;94539.50;5028428;28;20442;-76
2023/11/12 09:36:42;;;;;;;14.33;10.43;;;;;;;8.54;99.08;94548.97;5028392;28;20445;-76
2023/11/12 09:39:12;;;;;;;18.83;10.27;;;;;;;8.77;98.22;94547.09;5028291;28;20448;-76
2023/11/12 09:41:45;;;;;;;13.40;8.50;;;;;;;8.86;98.13;94538.47;5028545;28;20448;-76
2023/11/12 09:44:12;;;;;;;10.87;8.07;;;;;;;8.98;98.32;94529.59;5028643;28;20449;-76
2023/11/12 09:46:40;;;;;;;25.83;15.53;;;;;;;9.05;98.31;94525.50;5028344;28;20446;-76
2023/11/12 09:49:10;;;;;;;24.63;16.30;;;;;;;9.03;97.51;94523.97;5028624;28;20935;-76
2023/11/12 09:51:40;;;;;;;24.83;16.00;;;;;;;8.95;97.77;94512.34;5028477;28;20528;-76
2023/11/12 09:54:09;;;;;;;16.93;12.00;;;;;;;8.98;97.30;94516.50;5028231;28;20457;-75
2023/11/12 09:56:36;;;;;;;14.30;8.67;;;;;;;8.93;97.28;94518.66;5028703;28;20498;-76
2023/11/12 09:59:04;;;;;;;21.43;13.67;;;;;;;8.86;97.50;94530.63;5028885;28;20470;-76
2023/11/12 10:01:32;;;;;;;13.30;10.13;;;;;;;8.81;97.79;94524.94;5028339;28;20454;-76
2023/11/12 10:03:59;;;;;;;10.90;6.87;;;;;;;8.91;97.41;94544.13;5010274;28;20446;-76
2023/11/12 10:06:27;;;;;;;16.13;8.60;;;;;;;9.01;97.09;94539.81;5028274;28;20548;-76
2023/11/12 10:08:54;;;;;;;18.43;11.70;;;;;;;9.05;95.91;94538.59;5028291;28;20451;-76
2023/11/12 10:11:22;;;;;;;10.73;7.63;;;;;;;9.11;96.36;94540.69;5028458;28;20471;-76
2023/11/12 10:13:51;;;;;;;10.10;6.83;;;;;;;9.20;96.02;94537.28;5028115;28;20860;-76
2023/11/12 10:16:29;;;;;;;8.50;7.00;;;;;;;9.30;94.88;94539.97;5028297;28;20496;-76
2023/11/12 10:19:11;;;;;;;8.50;5.90;;;;;;;9.44;94.24;94544.00;5027926;28;20470;-76
2023/11/12 10:21:57;;;;;;;14.20;8.60;;;;;;;9.49;94.01;94547.03;5028349;28;20457;-76
2023/11/12 10:24:28;;;;;;;14.70;11.03;;;;;;;9.51;93.51;94542.50;5077836;28;20442;-76
2023/11/12 10:27:04;;;;;;;20.93;9.80;;;;;;;9.51;92.22;94540.72;5028019;28;20498;-76
2023/11/12 10:29:32;;;;;;;10.60;7.47;;;;;;;9.47;92.56;94523.59;5028441;28;20912;-76
2023/11/12 10:32:09;;;;;;;15.23;8.27;;;;;;;9.68;92.63;94547.13;5028611;28;20495;-76
2023/11/12 10:34:36;;;;;;;8.90;7.60;;;;;;;9.65;90.57;94539.53;5029980;28;21017;-76
2023/11/12 10:37:08;;;;;;;15.40;8.23;;;;;;;9.76;89.32;94551.69;5031488;28;20442;-76
2023/11/12 10:39:40;;;;;;;13.83;8.30;;;;;;;9.81;89.25;94552.13;5013228;28;20808;-76
2023/11/12 10:42:20;;;;;;;13.33;7.60;;;;;;;9.87;88.58;94546.38;5031764;28;20454;-76
2023/11/12 10:44:48;;;;;;;11.63;8.23;;;;;;;9.87;87.94;94551.59;5031537;28;20438;-76
2023/11/12 10:47:18;;;;;;;15.43;10.77;;;;;;;9.97;88.95;94552.44;5031498;28;20450;-76
2023/11/12 10:49:47;;;;;;;14.00;8.30;;;;;;;10.06;87.82;94551.63;5031326;28;20461;-76
2023/11/12 10:52:16;;;;;;;14.07;10.80;;;;;;;10.12;87.90;94560.72;5031122;28;20485;-76
2023/11/12 10:54:43;;;;;;;15.73;9.10;;;;;;;10.22;86.43;94556.38;5030888;28;20482;-76
2023/11/12 10:57:10;;;;;;;8.17;6.97;;;;;;;10.28;87.03;94562.88;5031583;28;20526;-76
2023/11/12 10:59:37;;;;;;;12.03;6.93;;;;;;;10.27;85.15;94559.44;5031205;28;20451;-76
2023/11/12 11:02:04;;;;;;;13.23;6.40;;;;;;;10.29;85.47;94560.13;5031229;28;20438;-76
2023/11/12 11:04:33;;;;;;;13.00;6.17;;;;;;;10.39;85.17;94558.31;4996626;28;20446;-77
2023/11/12 11:07:00;;;;;;;11.23;7.17;;;;;;;10.40;85.75;94565.22;5031890;28;20477;-77
2023/11/12 11:09:29;;;;;;;15.17;8.60;;;;;;;10.39;86.62;94574.06;5031820;28;20491;-76
2023/11/12 11:11:56;;;;;;;12.33;8.40;;;;;;;10.33;86.10;94563.28;5105143;27;20462;-77
2023/11/12 11:14:27;;;;;;;11.90;8.03;;;;;;;10.40;86.81;94554.72;5042100;28;20427;-75
2023/11/12 11:16:54;;;;;;;13.87;8.93;;;;;;;10.42;86.89;94554.63;5031633;28;20486;-75
2023/11/12 11:19:54;;;;;;;12.00;7.23;;;;;;;10.44;85.13;94548.28;4996528;28;20454;-75
2023/11/12 11:22:25;;;;;;;12.57;6.70;;;;;;;10.50;85.50;94563.44;5031219;28;20453;-75
2023/11/12 11:24:56;;;;;;;10.87;6.73;;;;;;;10.59;83.67;94574.06;5031289;28;20491;-76
2023/11/12 11:27:24;;;;;;;10.83;7.97;;;;;;;10.74;84.48;94567.47;5100954;27;20442;-73
2023/11/12 11:30:09;;;;;;;10.40;6.80;;;;;;;10.84;84.00;94568.28;5031464;28;20452;-73
2023/11/12 11:32:36;;;;;;;11.00;7.13;;;;;;;10.94;83.33;94573.50;5031156;28;20455;-73
2023/11/12 11:35:16;;;;;;;10.07;6.17;;;;;;;11.06;83.21;94575.84;5031281;28;20494;-73
2023/11/12 11:38:13;;;;;;;10.70;8.60;;;;;;;11.16;82.92;94562.69;5030707;28;20511;-73